sensor_id;sensor_type;location;lat;lon;timestamp;pressure;altitude;pressure_sealevel;temperature;humidity
12209;BME280;6167;43.080;25.634;2022-09-01T00:01:45;99349.84;;;22.12;100.00
12209;BME280;6167;43.080;25.634;2022-09-01T00:04:15;99336.69;;;21.99;100.00
12209;BME280;6167;43.080;25.634;2022-09-01T00:06:45;99332.72;;;22.03;100.00
12209;BME280;6167;43.080;25.634;2022-09-01T00:11:50;99333.22;;;22.26;100.00
12209;BME280;6167;43.080;25.634;2022-09-01T00:14:19;99330.34;;;22.37;100.00
12209;BME280;6167;43.080;25.634;2022-09-01T00:16:47;99335.75;;;22.55;100.00
12209;BME280;6167;43.080;25.634;2022-09-01T00:19:14;99333.91;;;22.55;100.00
12209;BME280;6167;43.080;25.634;2022-09-01T00:21:43;99332.72;;;22.40;100.00
12209;BME280;6167;43.080;25.634;2022-09-01T00:24:11;99333.56;;;22.13;100.00
12209;BME280;6167;43.080;25.634;2022-09-01T00:26:41;99333.69;;;22.12;100.00
12209;BME280;6167;43.080;25.634;2022-09-01T00:29:11;99336.59;;;22.01;100.00
12209;BME280;6167;43.080;25.634;2022-09-01T00:31:38;99321.41;;;22.00;100.00
12209;BME280;6167;43.080;25.634;2022-09-01T00:34:05;99328.59;;;22.18;100.00
12209;BME280;6167;43.080;25.634;2022-09-01T00:36:32;99328.47;;;22.10;100.00
12209;BME280;6167;43.080;25.634;2022-09-01T00:39:00;99321.13;;;21.37;100.00
12209;BME280;6167;43.080;25.634;2022-09-01T00:41:29;99331.03;;;21.36;100.00
12209;BME280;6167;43.080;25.634;2022-09-01T00:43:59;99322.78;;;21.47;100.00
12209;BME280;6167;43.080;25.634;2022-09-01T00:46:33;99331.44;;;21.32;100.00
12209;BME280;6167;43.080;25.634;2022-09-01T00:49:03;99321.94;;;21.47;100.00
12209;BME280;6167;43.080;25.634;2022-09-01T00:51:34;99324.22;;;21.51;100.00
12209;BME280;6167;43.080;25.634;2022-09-01T00:54:03;99316.00;;;21.24;100.00
12209;BME280;6167;43.080;25.634;2022-09-01T00:56:33;99325.59;;;20.78;100.00
12209;BME280;6167;43.080;25.634;2022-09-01T00:59:01;99331.78;;;20.79;100.00
12209;BME280;6167;43.080;25.634;2022-09-01T01:01:29;99310.47;;;20.77;100.00
12209;BME280;6167;43.080;25.634;2022-09-01T01:03:59;99328.41;;;20.67;100.00
12209;BME280;6167;43.080;25.634;2022-09-01T01:06:26;99315.38;;;20.63;100.00
12209;BME280;6167;43.080;25.634;2022-09-01T01:08:58;99328.97;;;20.71;100.00
12209;BME280;6167;43.080;25.634;2022-09-01T01:11:29;99327.72;;;20.75;100.00
12209;BME280;6167;43.080;25.634;2022-09-01T01:13:58;99315.94;;;20.56;100.00
12209;BME280;6167;43.080;25.634;2022-09-01T01:16:31;99318.38;;;20.88;100.00
12209;BME280;6167;43.080;25.634;2022-09-01T01:18:59;99312.03;;;20.89;100.00
12209;BME280;6167;43.080;25.634;2022-09-01T01:21:32;99318.22;;;20.80;100.00
12209;BME280;6167;43.080;25.634;2022-09-01T01:24:33;99316.00;;;20.95;100.00
12209;BME280;6167;43.080;25.634;2022-09-01T01:27:01;99313.72;;;21.10;100.00
12209;BME280;6167;43.080;25.634;2022-09-01T01:29:31;99313.16;;;21.06;100.00
12209;BME280;6167;43.080;25.634;2022-09-01T01:31:59;99315.41;;;20.82;100.00
12209;BME280;6167;43.080;25.634;2022-09-01T01:34:26;99314.88;;;20.98;100.00
12209;BME280;6167;43.080;25.634;2022-09-01T01:36:53;99320.13;;;21.18;100.00
12209;BME280;6167;43.080;25.634;2022-09-01T01:39:26;99316.44;;;21.29;100.00
12209;BME280;6167;43.080;25.634;2022-09-01T01:41:54;99315.88;;;21.16;100.00
12209;BME280;6167;43.080;25.634;2022-09-01T01:44:24;99320.66;;;21.41;100.00
12209;BME280;6167;43.080;25.634;2022-09-01T01:46:53;99324.50;;;21.58;100.00
12209;BME280;6167;43.080;25.634;2022-09-01T01:49:25;99318.66;;;21.63;100.00
12209;BME280;6167;43.080;25.634;2022-09-01T01:51:53;99335.53;;;21.26;100.00
12209;BME280;6167;43.080;25.634;2022-09-01T01:54:23;99322.09;;;21.26;100.00
12209;BME280;6167;43.080;25.634;2022-09-01T01:56:53;99325.34;;;21.49;100.00
12209;BME280;6167;43.080;25.634;2022-09-01T01:59:22;99330.53;;;20.73;100.00
12209;BME280;6167;43.080;25.634;2022-09-01T02:01:49;99325.44;;;20.80;100.00
12209;BME280;6167;43.080;25.634;2022-09-01T02:04:18;99303.25;;;21.07;100.00
12209;BME280;6167;43.080;25.634;2022-09-01T02:06:47;99318.25;;;21.48;100.00
12209;BME280;6167;43.080;25.634;2022-09-01T02:09:19;99321.22;;;21.54;100.00
12209;BME280;6167;43.080;25.634;2022-09-01T02:11:47;99316.13;;;20.93;100.00
12209;BME280;6167;43.080;25.634;2022-09-01T02:14:24;99324.44;;;20.81;100.00
12209;BME280;6167;43.080;25.634;2022-09-01T02:16:51;99321.03;;;20.59;100.00
12209;BME280;6167;43.080;25.634;2022-09-01T02:19:20;99324.28;;;20.53;100.00
12209;BME280;6167;43.080;25.634;2022-09-01T02:21:47;99320.75;;;20.63;100.00
12209;BME280;6167;43.080;25.634;2022-09-01T02:24:22;99323.94;;;20.97;100.00
12209;BME280;6167;43.080;25.634;2022-09-01T02:26:50;99323.50;;;21.20;100.00
12209;BME280;6167;43.080;25.634;2022-09-01T02:29:19;99323.94;;;21.25;100.00
12209;BME280;6167;43.080;25.634;2022-09-01T02:31:52;99324.19;;;21.03;100.00
12209;BME280;6167;43.080;25.634;2022-09-01T02:34:20;99312.19;;;20.98;100.00
12209;BME280;6167;43.080;25.634;2022-09-01T02:36:50;99306.66;;;21.18;100.00
12209;BME280;6167;43.080;25.634;2022-09-01T02:39:20;99305.84;;;21.27;100.00
12209;BME280;6167;43.080;25.634;2022-09-01T02:41:47;99315.47;;;21.40;100.00
12209;BME280;6167;43.080;25.634;2022-09-01T02:44:14;99321.53;;;21.13;100.00
12209;BME280;6167;43.080;25.634;2022-09-01T02:46:45;99321.66;;;21.02;100.00
12209;BME280;6167;43.080;25.634;2022-09-01T02:49:16;99313.88;;;20.89;100.00
12209;BME280;6167;43.080;25.634;2022-09-01T02:51:48;99311.19;;;20.89;100.00
12209;BME280;6167;43.080;25.634;2022-09-01T02:59:27;99318.69;;;21.14;100.00
12209;BME280;6167;43.080;25.634;2022-09-01T03:01:55;99316.56;;;20.99;100.00
12209;BME280;6167;43.080;25.634;2022-09-01T03:04:24;99330.72;;;20.41;100.00
12209;BME280;6167;43.080;25.634;2022-09-01T03:06:53;99331.59;;;20.42;100.00
12209;BME280;6167;43.080;25.634;2022-09-01T03:09:23;99344.91;;;20.22;100.00
12209;BME280;6167;43.080;25.634;2022-09-01T03:11:52;99342.66;;;20.28;100.00
12209;BME280;6167;43.080;25.634;2022-09-01T03:14:21;99348.38;;;19.83;100.00
12209;BME280;6167;43.080;25.634;2022-09-01T03:16:51;99336.31;;;19.98;100.00
12209;BME280;6167;43.080;25.634;2022-09-01T03:19:18;99313.41;;;20.15;100.00
12209;BME280;6167;43.080;25.634;2022-09-01T03:21:47;99313.22;;;20.47;100.00
12209;BME280;6167;43.080;25.634;2022-09-01T03:24:16;99333.81;;;20.86;100.00
12209;BME280;6167;43.080;25.634;2022-09-01T03:26:44;99338.34;;;21.15;100.00
12209;BME280;6167;43.080;25.634;2022-09-01T03:29:12;99326.63;;;21.25;100.00
12209;BME280;6167;43.080;25.634;2022-09-01T03:31:39;99328.91;;;21.30;100.00
12209;BME280;6167;43.080;25.634;2022-09-01T03:34:07;99336.53;;;21.15;100.00
12209;BME280;6167;43.080;25.634;2022-09-01T03:36:36;99334.81;;;21.14;100.00
12209;BME280;6167;43.080;25.634;2022-09-01T03:39:05;99310.91;;;21.11;100.00
12209;BME280;6167;43.080;25.634;2022-09-01T03:41:34;99334.66;;;21.06;100.00
12209;BME280;6167;43.080;25.634;2022-09-01T03:44:04;99334.69;;;20.97;100.00
12209;BME280;6167;43.080;25.634;2022-09-01T03:46:31;99317.84;;;21.14;100.00
12209;BME280;6167;43.080;25.634;2022-09-01T03:48:59;99319.81;;;21.02;100.00
12209;BME280;6167;43.080;25.634;2022-09-01T03:51:27;99336.50;;;21.06;100.00
12209;BME280;6167;43.080;25.634;2022-09-01T03:53:55;99313.09;;;20.48;100.00
12209;BME280;6167;43.080;25.634;2022-09-01T03:56:26;99342.38;;;20.61;100.00
12209;BME280;6167;43.080;25.634;2022-09-01T03:58:55;99339.56;;;20.63;100.00
12209;BME280;6167;43.080;25.634;2022-09-01T04:01:24;99343.25;;;20.31;100.00
12209;BME280;6167;43.080;25.634;2022-09-01T04:03:51;99342.66;;;20.28;100.00
12209;BME280;6167;43.080;25.634;2022-09-01T04:06:18;99328.34;;;20.17;100.00
12209;BME280;6167;43.080;25.634;2022-09-01T04:08:48;99342.59;;;20.39;100.00
12209;BME280;6167;43.080;25.634;2022-09-01T04:11:18;99342.94;;;20.65;100.00
12209;BME280;6167;43.080;25.634;2022-09-01T04:13:50;99341.88;;;20.77;100.00
12209;BME280;6167;43.080;25.634;2022-09-01T04:16:20;99350.06;;;20.85;100.00
12209;BME280;6167;43.080;25.634;2022-09-01T04:19:04;99349.50;;;21.01;100.00
12209;BME280;6167;43.080;25.634;2022-09-01T04:21:41;99346.44;;;21.44;100.00
12209;BME280;6167;43.080;25.634;2022-09-01T04:24:11;99343.19;;;21.59;100.00
12209;BME280;6167;43.080;25.634;2022-09-01T04:26:41;99348.06;;;21.83;100.00
12209;BME280;6167;43.080;25.634;2022-09-01T04:29:14;99348.00;;;22.12;100.00
12209;BME280;6167;43.080;25.634;2022-09-01T04:31:44;99344.16;;;22.52;100.00
12209;BME280;6167;43.080;25.634;2022-09-01T04:34:13;99348.63;;;22.88;100.00
12209;BME280;6167;43.080;25.634;2022-09-01T04:36:42;99322.22;;;23.10;100.00
12209;BME280;6167;43.080;25.634;2022-09-01T04:39:11;99331.06;;;23.38;100.00
12209;BME280;6167;43.080;25.634;2022-09-01T04:41:40;99332.00;;;23.64;100.00
12209;BME280;6167;43.080;25.634;2022-09-01T04:44:12;99323.22;;;23.88;100.00
12209;BME280;6167;43.080;25.634;2022-09-01T04:46:46;99325.22;;;23.86;100.00
12209;BME280;6167;43.080;25.634;2022-09-01T04:49:17;99326.00;;;24.04;100.00
12209;BME280;6167;43.080;25.634;2022-09-01T04:51:49;99319.16;;;24.18;100.00
12209;BME280;6167;43.080;25.634;2022-09-01T04:54:19;99327.34;;;24.26;100.00
12209;BME280;6167;43.080;25.634;2022-09-01T04:56:49;99337.47;;;24.32;100.00
12209;BME280;6167;43.080;25.634;2022-09-01T04:59:24;99332.28;;;24.13;100.00
12209;BME280;6167;43.080;25.634;2022-09-01T05:01:55;99331.03;;;24.25;100.00
12209;BME280;6167;43.080;25.634;2022-09-01T05:04:27;99330.31;;;24.57;100.00
12209;BME280;6167;43.080;25.634;2022-09-01T05:06:59;99314.34;;;24.80;100.00
12209;BME280;6167;43.080;25.634;2022-09-01T05:09:27;99316.66;;;25.33;100.00
12209;BME280;6167;43.080;25.634;2022-09-01T05:11:57;99327.47;;;25.41;100.00
12209;BME280;6167;43.080;25.634;2022-09-01T05:14:26;99332.72;;;25.67;100.00
12209;BME280;6167;43.080;25.634;2022-09-01T05:16:59;99309.28;;;26.07;100.00
12209;BME280;6167;43.080;25.634;2022-09-01T05:19:32;99327.53;;;26.37;100.00
12209;BME280;6167;43.080;25.634;2022-09-01T05:22:01;99313.47;;;26.64;100.00
12209;BME280;6167;43.080;25.634;2022-09-01T05:24:29;99309.59;;;26.98;100.00
12209;BME280;6167;43.080;25.634;2022-09-01T05:26:59;99320.34;;;27.14;100.00
12209;BME280;6167;43.080;25.634;2022-09-01T05:29:27;99325.94;;;27.13;100.00
12209;BME280;6167;43.080;25.634;2022-09-01T05:31:54;99332.31;;;26.89;100.00
12209;BME280;6167;43.080;25.634;2022-09-01T05:34:24;99311.09;;;26.69;100.00
12209;BME280;6167;43.080;25.634;2022-09-01T05:36:54;99322.06;;;27.07;100.00
12209;BME280;6167;43.080;25.634;2022-09-01T05:39:23;99295.25;;;27.35;100.00
12209;BME280;6167;43.080;25.634;2022-09-01T05:41:51;99314.38;;;27.79;100.00
12209;BME280;6167;43.080;25.634;2022-09-01T05:44:21;99306.81;;;28.33;100.00
12209;BME280;6167;43.080;25.634;2022-09-01T05:46:57;99305.31;;;28.01;100.00
12209;BME280;6167;43.080;25.634;2022-09-01T05:49:29;99310.28;;;27.98;100.00
12209;BME280;6167;43.080;25.634;2022-09-01T05:51:57;99312.69;;;28.08;100.00
12209;BME280;6167;43.080;25.634;2022-09-01T05:54:25;99314.31;;;28.31;100.00
12209;BME280;6167;43.080;25.634;2022-09-01T05:56:54;99302.53;;;28.75;100.00
12209;BME280;6167;43.080;25.634;2022-09-01T05:59:23;99310.69;;;29.11;100.00
12209;BME280;6167;43.080;25.634;2022-09-01T06:01:51;99313.78;;;29.44;100.00
12209;BME280;6167;43.080;25.634;2022-09-01T06:04:20;99303.94;;;29.43;100.00
12209;BME280;6167;43.080;25.634;2022-09-01T06:06:50;99315.03;;;29.69;98.82
12209;BME280;6167;43.080;25.634;2022-09-01T06:09:18;99303.66;;;29.87;99.32
12209;BME280;6167;43.080;25.634;2022-09-01T06:11:48;99309.34;;;29.92;96.65
12209;BME280;6167;43.080;25.634;2022-09-01T06:14:16;99311.72;;;30.02;97.47
12209;BME280;6167;43.080;25.634;2022-09-01T06:16:45;99310.81;;;30.23;95.63
12209;BME280;6167;43.080;25.634;2022-09-01T06:19:12;99310.56;;;30.52;92.41
12209;BME280;6167;43.080;25.634;2022-09-01T06:21:40;99305.44;;;30.84;87.68
12209;BME280;6167;43.080;25.634;2022-09-01T06:24:08;99310.34;;;31.08;84.85
12209;BME280;6167;43.080;25.634;2022-09-01T06:26:36;99313.69;;;30.97;91.62
12209;BME280;6167;43.080;25.634;2022-09-01T06:29:06;99323.97;;;31.08;90.49
12209;BME280;6167;43.080;25.634;2022-09-01T06:31:40;99322.81;;;31.43;84.74
12209;BME280;6167;43.080;25.634;2022-09-01T06:34:09;99321.97;;;31.83;78.81
12209;BME280;6167;43.080;25.634;2022-09-01T06:36:38;99308.28;;;32.09;75.41
12209;BME280;6167;43.080;25.634;2022-09-01T06:39:08;99308.72;;;32.06;77.08
12209;BME280;6167;43.080;25.634;2022-09-01T06:41:44;99315.44;;;32.23;74.69
12209;BME280;6167;43.080;25.634;2022-09-01T06:44:12;99309.25;;;32.48;72.09
12209;BME280;6167;43.080;25.634;2022-09-01T06:46:39;99316.38;;;32.55;72.66
12209;BME280;6167;43.080;25.634;2022-09-01T06:49:07;99319.69;;;31.93;78.17
12209;BME280;6167;43.080;25.634;2022-09-01T06:51:36;99318.78;;;32.25;76.33
12209;BME280;6167;43.080;25.634;2022-09-01T06:54:04;99313.53;;;32.30;74.99
12209;BME280;6167;43.080;25.634;2022-09-01T06:56:33;99307.16;;;32.50;75.36
12209;BME280;6167;43.080;25.634;2022-09-01T06:59:01;99318.00;;;32.69;76.95
12209;BME280;6167;43.080;25.634;2022-09-01T07:01:30;99311.50;;;32.64;76.78
12209;BME280;6167;43.080;25.634;2022-09-01T07:04:00;99313.75;;;32.16;76.88
12209;BME280;6167;43.080;25.634;2022-09-01T07:06:28;99310.41;;;31.61;85.11
12209;BME280;6167;43.080;25.634;2022-09-01T07:08:57;99316.50;;;32.16;81.64
12209;BME280;6167;43.080;25.634;2022-09-01T07:11:27;99315.56;;;32.48;79.23
12209;BME280;6167;43.080;25.634;2022-09-01T07:13:58;99314.22;;;32.70;75.65
12209;BME280;6167;43.080;25.634;2022-09-01T07:16:27;99316.69;;;32.85;76.30
12209;BME280;6167;43.080;25.634;2022-09-01T07:18:57;99322.84;;;32.67;77.74
12209;BME280;6167;43.080;25.634;2022-09-01T07:21:26;99321.03;;;32.48;76.79
12209;BME280;6167;43.080;25.634;2022-09-01T07:23:56;99316.13;;;31.72;79.08
12209;BME280;6167;43.080;25.634;2022-09-01T07:26:26;99313.75;;;31.23;85.68
12209;BME280;6167;43.080;25.634;2022-09-01T07:28:53;99316.09;;;31.92;80.00
12209;BME280;6167;43.080;25.634;2022-09-01T07:31:24;99308.50;;;32.14;79.25
12209;BME280;6167;43.080;25.634;2022-09-01T07:33:53;99300.59;;;32.57;74.70
12209;BME280;6167;43.080;25.634;2022-09-01T07:36:20;99304.22;;;32.96;72.25
12209;BME280;6167;43.080;25.634;2022-09-01T07:38:47;99305.81;;;31.74;81.05
12209;BME280;6167;43.080;25.634;2022-09-01T07:41:18;99301.44;;;32.58;74.53
12209;BME280;6167;43.080;25.634;2022-09-01T07:43:46;99306.97;;;33.27;69.41
12209;BME280;6167;43.080;25.634;2022-09-01T07:46:15;99304.72;;;33.18;71.26
12209;BME280;6167;43.080;25.634;2022-09-01T07:48:44;99294.94;;;32.52;75.68
12209;BME280;6167;43.080;25.634;2022-09-01T07:51:14;99297.59;;;32.21;80.00
12209;BME280;6167;43.080;25.634;2022-09-01T07:53:44;99299.28;;;31.56;85.33
12209;BME280;6167;43.080;25.634;2022-09-01T07:56:13;99296.75;;;31.87;86.21
12209;BME280;6167;43.080;25.634;2022-09-01T07:58:43;99282.00;;;32.15;85.41
12209;BME280;6167;43.080;25.634;2022-09-01T08:01:13;99288.53;;;32.20;85.38
12209;BME280;6167;43.080;25.634;2022-09-01T08:03:41;99288.09;;;32.03;82.73
12209;BME280;6167;43.080;25.634;2022-09-01T08:06:11;99287.13;;;32.62;79.21
12209;BME280;6167;43.080;25.634;2022-09-01T08:08:40;99277.09;;;32.88;78.49
12209;BME280;6167;43.080;25.634;2022-09-01T08:11:07;99292.53;;;31.19;92.49
12209;BME280;6167;43.080;25.634;2022-09-01T08:13:36;99281.63;;;31.45;91.86
12209;BME280;6167;43.080;25.634;2022-09-01T08:16:04;99283.03;;;32.27;86.02
12209;BME280;6167;43.080;25.634;2022-09-01T08:18:32;99276.59;;;32.59;82.85
12209;BME280;6167;43.080;25.634;2022-09-01T08:20:59;99273.44;;;33.00;78.06
12209;BME280;6167;43.080;25.634;2022-09-01T08:23:27;99270.94;;;32.54;80.80
12209;BME280;6167;43.080;25.634;2022-09-01T08:25:54;99281.69;;;32.42;81.86
12209;BME280;6167;43.080;25.634;2022-09-01T08:28:21;99284.09;;;32.19;82.03
12209;BME280;6167;43.080;25.634;2022-09-01T08:30:48;99279.94;;;31.31;87.92
12209;BME280;6167;43.080;25.634;2022-09-01T08:33:16;99268.59;;;31.27;90.83
12209;BME280;6167;43.080;25.634;2022-09-01T08:35:46;99264.81;;;31.88;84.58
12209;BME280;6167;43.080;25.634;2022-09-01T08:38:14;99270.31;;;32.52;76.44
12209;BME280;6167;43.080;25.634;2022-09-01T08:40:50;99266.75;;;32.45;77.50
12209;BME280;6167;43.080;25.634;2022-09-01T08:43:22;99268.94;;;32.17;81.81
12209;BME280;6167;43.080;25.634;2022-09-01T08:45:54;99263.63;;;32.86;72.64
12209;BME280;6167;43.080;25.634;2022-09-01T08:48:25;99259.13;;;33.30;64.56
12209;BME280;6167;43.080;25.634;2022-09-01T08:51:02;99259.31;;;33.03;66.21
12209;BME280;6167;43.080;25.634;2022-09-01T08:53:35;99250.50;;;33.83;61.47
12209;BME280;6167;43.080;25.634;2022-09-01T08:56:08;99247.03;;;33.44;57.40
12209;BME280;6167;43.080;25.634;2022-09-01T08:58:38;99244.41;;;33.99;55.86
12209;BME280;6167;43.080;25.634;2022-09-01T09:01:10;99240.13;;;33.60;55.09
12209;BME280;6167;43.080;25.634;2022-09-01T09:03:45;99244.41;;;33.74;55.79
12209;BME280;6167;43.080;25.634;2022-09-01T09:06:22;99239.66;;;33.44;55.99
12209;BME280;6167;43.080;25.634;2022-09-01T09:08:54;99234.44;;;33.86;57.42
12209;BME280;6167;43.080;25.634;2022-09-01T09:14:36;99230.94;;;32.98;58.32
12209;BME280;6167;43.080;25.634;2022-09-01T09:17:09;99223.19;;;32.88;56.36
12209;BME280;6167;43.080;25.634;2022-09-01T09:19:38;99227.38;;;32.91;59.24
12209;BME280;6167;43.080;25.634;2022-09-01T09:22:07;99223.91;;;32.77;57.69
12209;BME280;6167;43.080;25.634;2022-09-01T09:24:43;99225.47;;;33.47;57.16
12209;BME280;6167;43.080;25.634;2022-09-01T09:27:22;99217.22;;;33.72;55.33
12209;BME280;6167;43.080;25.634;2022-09-01T09:29:53;99228.94;;;32.80;55.85
12209;BME280;6167;43.080;25.634;2022-09-01T09:32:22;99221.78;;;32.79;56.32
12209;BME280;6167;43.080;25.634;2022-09-01T09:34:50;99224.03;;;32.44;59.06
12209;BME280;6167;43.080;25.634;2022-09-01T09:37:23;99214.63;;;32.78;57.05
12209;BME280;6167;43.080;25.634;2022-09-01T09:40:06;99214.66;;;32.65;59.57
12209;BME280;6167;43.080;25.634;2022-09-01T09:42:35;99208.72;;;33.06;56.42
12209;BME280;6167;43.080;25.634;2022-09-01T09:45:20;99206.78;;;33.13;53.91
12209;BME280;6167;43.080;25.634;2022-09-01T09:47:47;99203.91;;;33.33;52.83
12209;BME280;6167;43.080;25.634;2022-09-01T09:50:21;99204.63;;;33.22;52.15
12209;BME280;6167;43.080;25.634;2022-09-01T09:52:50;99200.50;;;33.06;53.86
12209;BME280;6167;43.080;25.634;2022-09-01T09:55:26;99194.03;;;33.32;53.16
12209;BME280;6167;43.080;25.634;2022-09-01T09:57:56;99192.44;;;33.18;52.80
12209;BME280;6167;43.080;25.634;2022-09-01T10:00:27;99189.56;;;33.56;51.92
12209;BME280;6167;43.080;25.634;2022-09-01T10:02:58;99184.13;;;33.74;53.07
12209;BME280;6167;43.080;25.634;2022-09-01T10:05:38;99178.59;;;33.81;51.79
12209;BME280;6167;43.080;25.634;2022-09-01T10:08:07;99181.13;;;32.83;55.04
12209;BME280;6167;43.080;25.634;2022-09-01T10:10:42;99173.59;;;33.53;52.41
12209;BME280;6167;43.080;25.634;2022-09-01T10:13:12;99174.75;;;33.45;51.63
12209;BME280;6167;43.080;25.634;2022-09-01T10:15:45;99176.78;;;33.00;53.10
12209;BME280;6167;43.080;25.634;2022-09-01T10:18:16;99169.41;;;33.50;52.07
12209;BME280;6167;43.080;25.634;2022-09-01T10:20:48;99165.84;;;33.68;50.56
12209;BME280;6167;43.080;25.634;2022-09-01T10:23:19;99172.63;;;33.65;52.03
12209;BME280;6167;43.080;25.634;2022-09-01T10:25:48;99159.69;;;33.29;51.66
12209;BME280;6167;43.080;25.634;2022-09-01T10:28:20;99157.31;;;33.08;52.09
12209;BME280;6167;43.080;25.634;2022-09-01T10:30:52;99161.75;;;33.09;51.95
12209;BME280;6167;43.080;25.634;2022-09-01T10:33:21;99157.22;;;33.21;51.46
12209;BME280;6167;43.080;25.634;2022-09-01T10:35:50;99161.53;;;33.97;49.15
12209;BME280;6167;43.080;25.634;2022-09-01T10:38:22;99157.06;;;33.41;49.97
12209;BME280;6167;43.080;25.634;2022-09-01T10:40:51;99152.69;;;33.76;49.01
12209;BME280;6167;43.080;25.634;2022-09-01T10:43:37;99151.53;;;33.66;50.13
12209;BME280;6167;43.080;25.634;2022-09-01T10:48:58;99153.78;;;33.51;50.06
12209;BME280;6167;43.080;25.634;2022-09-01T10:51:44;99149.69;;;33.60;49.08
12209;BME280;6167;43.080;25.634;2022-09-01T10:57:33;99146.50;;;33.44;48.02
12209;BME280;6167;43.080;25.634;2022-09-01T11:00:47;99146.94;;;33.85;48.37
12209;BME280;6167;43.080;25.634;2022-09-01T11:09:38;99126.34;;;33.94;46.07
12209;BME280;6167;43.080;25.634;2022-09-01T11:15:01;99116.31;;;33.88;46.19
12209;BME280;6167;43.080;25.634;2022-09-01T11:17:30;99112.13;;;34.15;45.58
12209;BME280;6167;43.080;25.634;2022-09-01T11:20:21;99116.81;;;33.60;45.82
12209;BME280;6167;43.080;25.634;2022-09-01T11:22:59;99101.44;;;34.43;44.58
12209;BME280;6167;43.080;25.634;2022-09-01T11:25:36;99095.78;;;34.68;43.84
12209;BME280;6167;43.080;25.634;2022-09-01T11:31:10;99094.84;;;34.14;43.98
12209;BME280;6167;43.080;25.634;2022-09-01T11:33:45;99092.56;;;33.82;43.94
12209;BME280;6167;43.080;25.634;2022-09-01T11:36:25;99085.38;;;33.99;42.46
12209;BME280;6167;43.080;25.634;2022-09-01T11:38:58;99083.53;;;33.74;42.77
12209;BME280;6167;43.080;25.634;2022-09-01T11:41:34;99088.88;;;34.06;42.64
12209;BME280;6167;43.080;25.634;2022-09-01T11:44:12;99080.16;;;33.79;44.02
12209;BME280;6167;43.080;25.634;2022-09-01T11:46:40;99076.69;;;34.32;42.10
12209;BME280;6167;43.080;25.634;2022-09-01T11:49:24;99078.78;;;34.18;41.85
12209;BME280;6167;43.080;25.634;2022-09-01T11:51:53;99061.78;;;34.09;41.72
12209;BME280;6167;43.080;25.634;2022-09-01T11:54:22;99072.66;;;33.68;42.68
12209;BME280;6167;43.080;25.634;2022-09-01T11:56:52;99070.38;;;33.46;43.14
12209;BME280;6167;43.080;25.634;2022-09-01T11:59:32;99070.91;;;32.94;44.15
12209;BME280;6167;43.080;25.634;2022-09-01T12:02:00;99067.78;;;33.33;43.46
12209;BME280;6167;43.080;25.634;2022-09-01T12:04:32;99070.75;;;33.68;42.37
12209;BME280;6167;43.080;25.634;2022-09-01T12:07:02;99065.16;;;33.82;39.70
12209;BME280;6167;43.080;25.634;2022-09-01T12:09:36;99067.28;;;34.09;39.14
12209;BME280;6167;43.080;25.634;2022-09-01T12:12:07;99064.41;;;34.04;38.47
12209;BME280;6167;43.080;25.634;2022-09-01T12:14:55;99056.47;;;34.56;37.91
12209;BME280;6167;43.080;25.634;2022-09-01T12:17:22;99058.38;;;34.44;37.98
12209;BME280;6167;43.080;25.634;2022-09-01T12:19:49;99052.41;;;34.47;38.63
12209;BME280;6167;43.080;25.634;2022-09-01T12:22:17;99051.94;;;34.08;39.94
12209;BME280;6167;43.080;25.634;2022-09-01T12:24:47;99053.06;;;34.31;39.21
12209;BME280;6167;43.080;25.634;2022-09-01T12:27:17;99046.47;;;33.90;39.66
12209;BME280;6167;43.080;25.634;2022-09-01T12:29:47;99051.91;;;33.60;40.50
12209;BME280;6167;43.080;25.634;2022-09-01T12:32:15;99044.91;;;33.64;39.56
12209;BME280;6167;43.080;25.634;2022-09-01T12:34:44;99046.56;;;33.84;39.53
12209;BME280;6167;43.080;25.634;2022-09-01T12:37:20;99050.56;;;33.99;39.12
12209;BME280;6167;43.080;25.634;2022-09-01T12:39:49;99043.69;;;34.08;39.47
12209;BME280;6167;43.080;25.634;2022-09-01T12:42:26;99043.00;;;33.83;40.52
12209;BME280;6167;43.080;25.634;2022-09-01T12:48:05;99038.56;;;33.82;38.91
12209;BME280;6167;43.080;25.634;2022-09-01T12:50:42;99045.38;;;33.91;38.99
12209;BME280;6167;43.080;25.634;2022-09-01T12:53:24;99029.34;;;33.22;40.22
12209;BME280;6167;43.080;25.634;2022-09-01T12:56:20;99033.84;;;32.66;42.16
12209;BME280;6167;43.080;25.634;2022-09-01T12:59:04;99036.09;;;32.20;43.03
12209;BME280;6167;43.080;25.634;2022-09-01T13:01:33;99027.34;;;32.04;43.78
12209;BME280;6167;43.080;25.634;2022-09-01T13:04:15;99041.28;;;31.45;44.94
12209;BME280;6167;43.080;25.634;2022-09-01T13:06:48;99047.84;;;31.24;45.88
12209;BME280;6167;43.080;25.634;2022-09-01T13:09:16;99046.53;;;31.40;45.67
12209;BME280;6167;43.080;25.634;2022-09-01T13:11:43;99053.88;;;31.46;45.93
12209;BME280;6167;43.080;25.634;2022-09-01T13:14:13;99060.59;;;31.43;45.76
12209;BME280;6167;43.080;25.634;2022-09-01T13:16:41;99048.22;;;31.41;46.15
12209;BME280;6167;43.080;25.634;2022-09-01T13:19:08;99055.06;;;31.63;45.87
12209;BME280;6167;43.080;25.634;2022-09-01T13:21:35;99056.53;;;31.72;46.23
12209;BME280;6167;43.080;25.634;2022-09-01T13:24:04;99071.88;;;31.73;45.84
12209;BME280;6167;43.080;25.634;2022-09-01T13:26:31;99101.22;;;31.14;53.81
12209;BME280;6167;43.080;25.634;2022-09-01T13:29:00;99125.69;;;30.41;66.95
12209;BME280;6167;43.080;25.634;2022-09-01T13:31:29;99121.31;;;29.45;81.04
12209;BME280;6167;43.080;25.634;2022-09-01T13:33:57;99145.44;;;29.26;89.13
12209;BME280;6167;43.080;25.634;2022-09-01T13:36:25;99150.59;;;28.72;97.71
12209;BME280;6167;43.080;25.634;2022-09-01T13:38:52;99170.31;;;28.02;100.00
12209;BME280;6167;43.080;25.634;2022-09-01T13:41:19;99153.44;;;27.18;100.00
12209;BME280;6167;43.080;25.634;2022-09-01T13:43:45;99171.31;;;27.27;100.00
12209;BME280;6167;43.080;25.634;2022-09-01T13:46:12;99171.25;;;26.75;100.00